Time;durP1;ratioP1;P1;durP2;ratioP2;P2;SDS_P1;SDS_P2;PMS_P1;PMS_P2;Temp;Humidity;BMP_temperature;BMP_pressure;BME280_temperature;BME280_humidity;BME280_pressure;Samples;Min_cycle;Max_cycle;Signal;HPM_P1;HPM_P2
2022/01/04 00:00:31;;;;;;;16.38;4.10;;;;;;;;;;5204857;23;20058;-73
2022/01/04 00:02:57;;;;;;;24.35;4.93;;;;;;;;;;4990800;28;20061;-73
2022/01/04 00:05:23;;;;;;;20.40;4.63;;;;;;;;;;4988747;28;20085;-73
2022/01/04 00:07:50;;;;;;;21.73;4.53;;;;;;;;;;4987563;28;20042;-73
2022/01/04 00:10:22;;;;;;;23.92;5.00;;;;;;;;;;4988096;28;20050;-73
2022/01/04 00:15:33;;;;;;;25.48;5.20;;;;;;;;;;4985784;28;20487;-72
2022/01/04 00:17:59;;;;;;;23.40;4.90;;;;;;;;;;4988462;28;20468;-73
2022/01/04 00:20:25;;;;;;;20.10;5.25;;;;;;;;;;4980253;28;20169;-73
2022/01/04 00:22:51;;;;;;;22.40;5.03;;;;;;;;;;4992415;28;20062;-73
2022/01/04 00:25:17;;;;;;;22.75;5.03;;;;;;;;;;4990950;28;20094;-73
2022/01/04 00:27:43;;;;;;;24.73;5.03;;;;;;;;;;4991765;28;20038;-73
2022/01/04 00:30:10;;;;;;;21.55;4.75;;;;;;;;;;4989075;28;20430;-72
2022/01/04 00:32:36;;;;;;;25.85;5.05;;;;;;;;;;4990287;28;20164;-73
2022/01/04 00:35:02;;;;;;;24.50;4.80;;;;;;;;;;4987824;28;20053;-72
2022/01/04 00:37:28;;;;;;;24.75;5.03;;;;;;;;;;4988932;28;20105;-73
2022/01/04 00:39:54;;;;;;;19.75;5.00;;;;;;;;;;4988987;28;20050;-73
2022/01/04 00:42:20;;;;;;;17.00;4.80;;;;;;;;;;4987749;28;20129;-73
2022/01/04 00:44:46;;;;;;;17.15;4.57;;;;;;;;;;4992097;28;20137;-72
2022/01/04 00:47:12;;;;;;;27.23;5.53;;;;;;;;;;4990034;28;20047;-73
2022/01/04 00:49:38;;;;;;;20.77;4.72;;;;;;;;;;4987254;28;20047;-72
2022/01/04 00:52:04;;;;;;;20.10;4.80;;;;;;;;;;4986889;28;20050;-73
2022/01/04 00:54:30;;;;;;;30.10;5.07;;;;;;;;;;4989340;28;20054;-73
2022/01/04 00:56:56;;;;;;;25.40;5.47;;;;;;;;;;4990732;28;20068;-73
2022/01/04 00:59:22;;;;;;;28.30;5.43;;;;;;;;;;4990581;28;20054;-73
2022/01/04 01:01:48;;;;;;;21.35;5.97;;;;;;;;;;4992310;28;20054;-73
2022/01/04 01:04:14;;;;;;;26.92;5.30;;;;;;;;;;4986907;28;20050;-73
2022/01/04 01:06:41;;;;;;;28.08;5.03;;;;;;;;;;4986885;28;20121;-73
2022/01/04 01:09:07;;;;;;;20.45;4.97;;;;;;;;;;4989738;28;20046;-73
2022/01/04 01:11:33;;;;;;;19.50;5.15;;;;;;;;;;4989472;28;20042;-73
2022/01/04 01:13:59;;;;;;;23.27;5.43;;;;;;;;;;4989599;28;20559;-73
2022/01/04 01:16:25;;;;;;;21.00;4.68;;;;;;;;;;4991520;28;20042;-73
2022/01/04 01:18:51;;;;;;;23.38;5.55;;;;;;;;;;4988917;28;20050;-73
2022/01/04 01:21:17;;;;;;;21.63;4.35;;;;;;;;;;4989430;28;20045;-73
2022/01/04 01:23:43;;;;;;;19.65;4.90;;;;;;;;;;4988897;28;20512;-73
2022/01/04 01:26:09;;;;;;;22.02;4.45;;;;;;;;;;4988292;28;20050;-73
2022/01/04 01:28:36;;;;;;;24.52;5.13;;;;;;;;;;4989139;28;20050;-73
2022/01/04 01:31:05;;;;;;;19.67;5.45;;;;;;;;;;4988758;28;20441;-73
2022/01/04 01:33:31;;;;;;;21.27;5.30;;;;;;;;;;4992746;28;20049;-73
2022/01/04 01:38:33;;;;;;;25.45;4.72;;;;;;;;;;5160471;22;20045;-73
2022/01/04 01:40:59;;;;;;;17.98;5.70;;;;;;;;;;5004656;28;20054;-74
2022/01/04 01:43:28;;;;;;;22.83;4.95;;;;;;;;;;5005578;28;20062;-73
2022/01/04 01:45:55;;;;;;;22.10;4.82;;;;;;;;;;5008309;28;20096;-74
2022/01/04 01:48:21;;;;;;;26.20;5.15;;;;;;;;;;5007260;28;20050;-74
2022/01/04 01:50:47;;;;;;;23.02;5.03;;;;;;;;;;5005981;28;20069;-74
2022/01/04 01:53:13;;;;;;;26.27;4.88;;;;;;;;;;5006977;28;20064;-73
2022/01/04 01:55:39;;;;;;;26.67;4.93;;;;;;;;;;5005522;28;20049;-73
2022/01/04 01:58:11;;;;;;;22.13;5.88;;;;;;;;;;5008738;28;20065;-73
2022/01/04 02:00:37;;;;;;;28.00;5.97;;;;;;;;;;5006311;28;20493;-73
2022/01/04 02:03:04;;;;;;;30.30;5.28;;;;;;;;;;5010281;28;20164;-73
2022/01/04 02:05:30;;;;;;;23.50;5.10;;;;;;;;;;5005719;28;20057;-74
2022/01/04 02:07:56;;;;;;;28.33;5.07;;;;;;;;;;5008899;28;20132;-73
2022/01/04 02:10:22;;;;;;;26.70;4.63;;;;;;;;;;5009079;28;20077;-74
2022/01/04 02:12:49;;;;;;;25.90;5.35;;;;;;;;;;5010038;28;20084;-74
2022/01/04 02:15:18;;;;;;;21.30;4.65;;;;;;;;;;5001856;28;20125;-74
2022/01/04 02:17:44;;;;;;;23.20;5.25;;;;;;;;;;5007786;28;20045;-74
2022/01/04 02:20:11;;;;;;;20.45;4.90;;;;;;;;;;5006084;28;20490;-73
2022/01/04 02:22:37;;;;;;;27.73;5.35;;;;;;;;;;5007525;28;20044;-74
2022/01/04 02:25:03;;;;;;;23.98;5.10;;;;;;;;;;5006178;28;20049;-73
2022/01/04 02:27:31;;;;;;;30.13;5.40;;;;;;;;;;5010994;28;20046;-74
2022/01/04 02:29:57;;;;;;;27.05;5.40;;;;;;;;;;5007435;28;20049;-74
2022/01/04 02:32:23;;;;;;;22.45;4.53;;;;;;;;;;5006818;28;20482;-74
2022/01/04 02:34:50;;;;;;;21.58;4.65;;;;;;;;;;5006671;28;20041;-73
2022/01/04 02:37:24;;;;;;;18.75;4.53;;;;;;;;;;5006492;28;20062;-74
2022/01/04 02:39:50;;;;;;;22.23;4.40;;;;;;;;;;5002080;28;20453;-74
2022/01/04 02:42:16;;;;;;;22.33;5.28;;;;;;;;;;5006670;28;20398;-74
2022/01/04 02:44:42;;;;;;;24.00;5.15;;;;;;;;;;5006490;28;20042;-74
2022/01/04 02:47:08;;;;;;;24.35;5.22;;;;;;;;;;5009726;28;20124;-74
2022/01/04 02:49:34;;;;;;;23.42;5.53;;;;;;;;;;5002995;28;20087;-74
2022/01/04 02:52:01;;;;;;;20.25;4.80;;;;;;;;;;5010904;28;20045;-73
2022/01/04 02:54:27;;;;;;;27.80;4.80;;;;;;;;;;5004364;28;20057;-74
2022/01/04 02:56:53;;;;;;;21.60;4.55;;;;;;;;;;5007777;28;20038;-74
2022/01/04 02:59:19;;;;;;;23.23;4.78;;;;;;;;;;5007806;28;20038;-74
2022/01/04 03:01:45;;;;;;;26.27;5.00;;;;;;;;;;5006585;28;20129;-74
2022/01/04 03:04:11;;;;;;;28.50;5.28;;;;;;;;;;5006509;28;20125;-73
2022/01/04 03:06:38;;;;;;;24.92;4.95;;;;;;;;;;5004345;28;20049;-74
2022/01/04 03:09:05;;;;;;;25.42;5.00;;;;;;;;;;5008722;28;20041;-73
2022/01/04 03:11:31;;;;;;;29.25;4.82;;;;;;;;;;5002577;28;20085;-74
2022/01/04 03:13:57;;;;;;;21.73;4.93;;;;;;;;;;5007697;28;20042;-74
2022/01/04 03:16:23;;;;;;;26.90;5.57;;;;;;;;;;5005761;28;20489;-74
2022/01/04 03:19:03;;;;;;;23.23;6.15;;;;;;;;;;5008809;28;20045;-74
2022/01/04 03:21:30;;;;;;;21.20;4.95;;;;;;;;;;5020642;28;20045;-73
2022/01/04 03:23:59;;;;;;;20.15;4.97;;;;;;;;;;5009114;28;20096;-74
2022/01/04 03:26:25;;;;;;;30.25;5.70;;;;;;;;;;5004477;28;20050;-74
2022/01/04 03:28:51;;;;;;;29.20;5.28;;;;;;;;;;5007170;28;20461;-74
2022/01/04 03:31:17;;;;;;;24.25;4.60;;;;;;;;;;5004934;28;20835;-74
2022/01/04 03:33:43;;;;;;;19.90;5.03;;;;;;;;;;5008342;28;21369;-74
2022/01/04 03:36:09;;;;;;;19.13;4.95;;;;;;;;;;5004628;28;20082;-74
2022/01/04 03:38:36;;;;;;;24.48;5.43;;;;;;;;;;5005303;28;20053;-74
2022/01/04 03:41:02;;;;;;;34.83;6.22;;;;;;;;;;5005109;28;20133;-74
2022/01/04 03:43:29;;;;;;;28.48;5.30;;;;;;;;;;5007400;28;20057;-74
2022/01/04 03:45:55;;;;;;;25.48;5.47;;;;;;;;;;5006798;28;20681;-74
2022/01/04 03:48:23;;;;;;;26.40;5.10;;;;;;;;;;5005119;28;20117;-74
2022/01/04 03:50:49;;;;;;;21.40;5.20;;;;;;;;;;5008287;28;20049;-74
2022/01/04 03:53:15;;;;;;;25.77;4.95;;;;;;;;;;5010510;28;20057;-74
2022/01/04 03:55:41;;;;;;;23.20;4.80;;;;;;;;;;5013460;22;20081;-74
2022/01/04 03:58:07;;;;;;;30.58;5.15;;;;;;;;;;5010066;28;20141;-74
2022/01/04 04:00:33;;;;;;;22.90;4.82;;;;;;;;;;5005128;28;20437;-74
2022/01/04 04:02:59;;;;;;;26.10;5.00;;;;;;;;;;5011042;28;20061;-74
2022/01/04 04:05:25;;;;;;;20.13;4.57;;;;;;;;;;5013242;28;20042;-74
2022/01/04 04:07:51;;;;;;;27.35;4.95;;;;;;;;;;5010095;28;20133;-74
2022/01/04 04:10:17;;;;;;;21.98;4.90;;;;;;;;;;5010977;28;20046;-74
2022/01/04 04:12:43;;;;;;;26.13;5.18;;;;;;;;;;5011513;28;20034;-73
2022/01/04 04:15:09;;;;;;;20.40;5.07;;;;;;;;;;5009968;28;20501;-74
2022/01/04 04:17:36;;;;;;;25.13;4.85;;;;;;;;;;5015705;28;20057;-74
2022/01/04 04:20:03;;;;;;;32.60;6.10;;;;;;;;;;5006908;28;20045;-74
2022/01/04 04:22:29;;;;;;;28.45;6.13;;;;;;;;;;5012001;28;20034;-74
2022/01/04 04:24:55;;;;;;;18.02;5.03;;;;;;;;;;5005874;28;20447;-74
2022/01/04 04:27:21;;;;;;;20.58;5.30;;;;;;;;;;5010120;28;20053;-74
2022/01/04 04:29:47;;;;;;;29.38;5.50;;;;;;;;;;5006447;28;20038;-74
2022/01/04 04:32:13;;;;;;;23.67;5.57;;;;;;;;;;5011140;28;20061;-74
2022/01/04 04:34:39;;;;;;;19.25;4.97;;;;;;;;;;5005687;28;20038;-74
2022/01/04 04:37:05;;;;;;;24.30;5.00;;;;;;;;;;5007864;28;20072;-74
2022/01/04 04:39:31;;;;;;;27.35;5.72;;;;;;;;;;5015933;28;20053;-74
2022/01/04 04:41:57;;;;;;;23.45;5.65;;;;;;;;;;5011896;28;20398;-74
2022/01/04 04:44:23;;;;;;;24.15;5.65;;;;;;;;;;5010871;28;20053;-74
2022/01/04 04:46:49;;;;;;;21.25;4.93;;;;;;;;;;5007793;28;20154;-74
2022/01/04 04:49:16;;;;;;;31.48;5.78;;;;;;;;;;5008723;28;20060;-74
2022/01/04 04:51:42;;;;;;;20.42;5.05;;;;;;;;;;5008888;28;20046;-74
2022/01/04 04:54:08;;;;;;;19.65;5.00;;;;;;;;;;5013838;28;20354;-74
2022/01/04 04:56:38;;;;;;;25.23;5.60;;;;;;;;;;4997757;28;20061;-74
2022/01/04 04:59:04;;;;;;;19.30;4.65;;;;;;;;;;4990210;28;20065;-74
2022/01/04 05:01:30;;;;;;;26.15;4.68;;;;;;;;;;4967201;28;20402;-74
2022/01/04 05:03:56;;;;;;;21.33;4.97;;;;;;;;;;4989698;28;20064;-74
2022/01/04 05:06:22;;;;;;;21.35;5.18;;;;;;;;;;4988261;28;20046;-74
2022/01/04 05:08:48;;;;;;;23.23;4.28;;;;;;;;;;4974443;28;20038;-74
2022/01/04 05:11:14;;;;;;;26.10;5.10;;;;;;;;;;4973803;28;20065;-74
2022/01/04 05:13:40;;;;;;;21.58;5.15;;;;;;;;;;4973287;28;20502;-74
2022/01/04 05:16:06;;;;;;;18.88;5.55;;;;;;;;;;4973797;28;21668;-74
2022/01/04 05:18:32;;;;;;;23.05;4.57;;;;;;;;;;4972386;28;20486;-74
2022/01/04 05:20:58;;;;;;;26.33;5.28;;;;;;;;;;4971490;28;20486;-74
2022/01/04 05:23:24;;;;;;;17.08;4.75;;;;;;;;;;4990653;28;20129;-74
2022/01/04 05:25:50;;;;;;;24.73;5.43;;;;;;;;;;4989733;28;20141;-74
2022/01/04 05:28:16;;;;;;;21.17;5.10;;;;;;;;;;4990677;28;20050;-74
2022/01/04 05:30:42;;;;;;;23.02;5.18;;;;;;;;;;4989029;28;20054;-75
2022/01/04 05:33:08;;;;;;;23.33;5.32;;;;;;;;;;4973213;28;20050;-74
2022/01/04 05:35:35;;;;;;;24.58;5.03;;;;;;;;;;4989107;28;20540;-74
2022/01/04 05:38:01;;;;;;;28.45;5.57;;;;;;;;;;4988695;28;20042;-74
2022/01/04 05:40:27;;;;;;;23.30;5.18;;;;;;;;;;4989897;28;20061;-74
2022/01/04 05:42:53;;;;;;;21.58;4.45;;;;;;;;;;4989735;28;20145;-74
2022/01/04 05:45:19;;;;;;;19.92;4.22;;;;;;;;;;5009627;23;20044;-74
2022/01/04 05:47:45;;;;;;;18.85;4.45;;;;;;;;;;5042616;28;20079;-74
2022/01/04 05:50:11;;;;;;;22.75;5.10;;;;;;;;;;5050495;28;20049;-74
2022/01/04 05:52:37;;;;;;;21.92;5.25;;;;;;;;;;5049116;28;20045;-75
2022/01/04 05:55:03;;;;;;;23.88;5.15;;;;;;;;;;5062454;28;20055;-75
2022/01/04 05:57:30;;;;;;;25.48;5.45;;;;;;;;;;5050976;28;20113;-74
2022/01/04 05:59:57;;;;;;;20.98;5.22;;;;;;;;;;5067690;28;20041;-75
2022/01/04 06:02:23;;;;;;;20.95;5.00;;;;;;;;;;5066196;28;20052;-75
2022/01/04 06:04:49;;;;;;;15.90;4.28;;;;;;;;;;5065252;28;20068;-74
2022/01/04 06:07:15;;;;;;;27.63;4.80;;;;;;;;;;5054187;28;20052;-74
2022/01/04 06:09:45;;;;;;;25.75;5.90;;;;;;;;;;5046278;28;20036;-74
2022/01/04 06:15:15;;;;;;;21.23;4.70;;;;;;;;;;5046909;28;20146;-75
2022/01/04 06:17:42;;;;;;;24.33;4.80;;;;;;;;;;5050799;28;20040;-74
2022/01/04 06:20:09;;;;;;;24.42;5.15;;;;;;;;;;5045667;28;20044;-75
2022/01/04 06:22:36;;;;;;;23.85;6.00;;;;;;;;;;5068356;28;20511;-75
2022/01/04 06:25:03;;;;;;;24.20;5.13;;;;;;;;;;5045251;28;20586;-75
2022/01/04 06:27:29;;;;;;;19.42;4.82;;;;;;;;;;5066871;28;20037;-75
2022/01/04 06:29:55;;;;;;;20.17;5.65;;;;;;;;;;5044230;28;20128;-75
2022/01/04 06:32:22;;;;;;;27.73;5.70;;;;;;;;;;5065467;28;20056;-74
2022/01/04 06:34:48;;;;;;;16.42;4.72;;;;;;;;;;5066317;28;20078;-75
2022/01/04 06:37:14;;;;;;;21.70;5.32;;;;;;;;;;5055814;28;20045;-74
2022/01/04 06:39:41;;;;;;;20.55;5.22;;;;;;;;;;5066856;28;20149;-74
2022/01/04 06:42:07;;;;;;;18.70;4.78;;;;;;;;;;5047262;28;20480;-76
2022/01/04 06:44:33;;;;;;;19.98;5.45;;;;;;;;;;5046605;28;20036;-76
2022/01/04 06:47:00;;;;;;;17.38;4.90;;;;;;;;;;5044215;28;20448;-76
2022/01/04 06:49:26;;;;;;;21.60;5.57;;;;;;;;;;5059353;28;20049;-75
2022/01/04 06:51:52;;;;;;;21.25;5.47;;;;;;;;;;5062875;28;20036;-75
2022/01/04 06:54:19;;;;;;;19.50;5.28;;;;;;;;;;5047758;28;20047;-75
2022/01/04 06:56:45;;;;;;;18.17;5.15;;;;;;;;;;5063268;28;20043;-75
2022/01/04 06:59:12;;;;;;;27.08;4.82;;;;;;;;;;5067081;28;20037;-75
2022/01/04 07:01:38;;;;;;;26.88;5.05;;;;;;;;;;5045886;28;20071;-75
2022/01/04 07:04:05;;;;;;;24.05;5.50;;;;;;;;;;5049862;28;20464;-75
2022/01/04 07:06:31;;;;;;;19.63;5.20;;;;;;;;;;5066953;28;20040;-75
2022/01/04 07:08:57;;;;;;;20.05;5.18;;;;;;;;;;5070680;28;20041;-76
2022/01/04 07:11:23;;;;;;;21.25;4.90;;;;;;;;;;5065252;28;20048;-75
2022/01/04 07:13:49;;;;;;;20.88;5.68;;;;;;;;;;5048231;28;20036;-75
2022/01/04 07:16:15;;;;;;;23.50;5.75;;;;;;;;;;5066541;28;20040;-75
2022/01/04 07:18:46;;;;;;;26.42;5.40;;;;;;;;;;5047888;28;20480;-75
2022/01/04 07:21:13;;;;;;;29.17;6.20;;;;;;;;;;5046769;28;20167;-75
2022/01/04 07:23:39;;;;;;;18.42;5.35;;;;;;;;;;5045707;28;20490;-76
2022/01/04 07:26:05;;;;;;;22.58;5.25;;;;;;;;;;5046567;28;20512;-76
2022/01/04 07:28:31;;;;;;;22.77;5.68;;;;;;;;;;5051197;28;20079;-75
2022/01/04 07:30:57;;;;;;;25.30;5.93;;;;;;;;;;5070886;28;20067;-75
2022/01/04 07:33:23;;;;;;;18.85;5.70;;;;;;;;;;5052788;28;20496;-76
2022/01/04 07:35:49;;;;;;;14.52;5.50;;;;;;;;;;5054234;28;20036;-76
2022/01/04 07:38:15;;;;;;;10.68;3.88;;;;;;;;;;5066574;28;20392;-75
2022/01/04 07:40:41;;;;;;;9.02;2.72;;;;;;;;;;5074006;28;20052;-76
2022/01/04 07:43:07;;;;;;;11.48;2.40;;;;;;;;;;5055217;28;20079;-76
2022/01/04 07:45:34;;;;;;;3.78;2.13;;;;;;;;;;5051609;28;20060;-75
2022/01/04 07:48:01;;;;;;;6.68;2.22;;;;;;;;;;5058734;28;20179;-75
2022/01/04 07:50:27;;;;;;;8.50;2.33;;;;;;;;;;5046129;28;20504;-75
2022/01/04 07:52:54;;;;;;;9.05;2.20;;;;;;;;;;5050469;28;20110;-76
2022/01/04 07:55:20;;;;;;;7.90;1.90;;;;;;;;;;5045140;28;20511;-75
2022/01/04 07:57:46;;;;;;;6.45;2.00;;;;;;;;;;5072148;28;20568;-75
2022/01/04 08:00:13;;;;;;;8.95;2.35;;;;;;;;;;5068908;28;20131;-75
2022/01/04 08:02:40;;;;;;;8.90;1.90;;;;;;;;;;5068269;28;20123;-76
2022/01/04 08:05:07;;;;;;;10.20;3.83;;;;;;;;;;5056242;28;20439;-76
2022/01/04 08:07:33;;;;;;;8.38;3.20;;;;;;;;;;5057936;28;20137;-76
2022/01/04 08:09:59;;;;;;;11.60;2.80;;;;;;;;;;5062997;28;20036;-75
2022/01/04 08:12:25;;;;;;;9.07;2.78;;;;;;;;;;5064864;28;20131;-75
2022/01/04 08:14:52;;;;;;;11.13;2.35;;;;;;;;;;5070863;28;20128;-75
2022/01/04 08:17:18;;;;;;;9.82;2.92;;;;;;;;;;5050784;28;20401;-75
2022/01/04 08:19:44;;;;;;;7.40;2.85;;;;;;;;;;5063900;28;20052;-75
2022/01/04 08:22:10;;;;;;;10.45;2.75;;;;;;;;;;5056849;28;20052;-75
2022/01/04 08:24:36;;;;;;;6.13;2.08;;;;;;;;;;5064524;28;20040;-75
2022/01/04 08:27:02;;;;;;;5.72;1.70;;;;;;;;;;5040447;28;20080;-75
2022/01/04 08:29:30;;;;;;;7.32;1.83;;;;;;;;;;5073226;28;20055;-75
2022/01/04 08:31:56;;;;;;;9.35;2.00;;;;;;;;;;5050528;28;20048;-75
2022/01/04 08:34:22;;;;;;;12.55;2.60;;;;;;;;;;5069759;28;20053;-75
2022/01/04 08:36:48;;;;;;;8.98;3.58;;;;;;;;;;5049560;28;20038;-76
2022/01/04 08:39:14;;;;;;;9.90;2.85;;;;;;;;;;5052527;28;20068;-76
2022/01/04 08:41:45;;;;;;;4.53;1.95;;;;;;;;;;5068668;28;20059;-75
2022/01/04 08:44:11;;;;;;;7.72;2.42;;;;;;;;;;5071934;28;20094;-75
2022/01/04 08:46:38;;;;;;;3.95;1.70;;;;;;;;;;5067431;28;20128;-75
2022/01/04 08:49:07;;;;;;;6.47;1.80;;;;;;;;;;5049693;28;20500;-75
2022/01/04 08:51:33;;;;;;;3.63;1.58;;;;;;;;;;5048709;28;20045;-75
2022/01/04 08:53:59;;;;;;;4.90;1.55;;;;;;;;;;5066382;28;20059;-75
2022/01/04 08:56:26;;;;;;;5.68;1.33;;;;;;;;;;5054783;28;20400;-75
2022/01/04 08:58:52;;;;;;;6.25;2.42;;;;;;;;;;5068838;28;20055;-75
2022/01/04 09:01:18;;;;;;;7.05;2.28;;;;;;;;;;5073039;28;20042;-75
2022/01/04 09:03:44;;;;;;;3.13;1.70;;;;;;;;;;5047630;28;20056;-75
2022/01/04 09:06:11;;;;;;;3.65;1.33;;;;;;;;;;5068569;28;20048;-75
2022/01/04 09:08:37;;;;;;;6.18;1.50;;;;;;;;;;5045783;28;20052;-75
2022/01/04 09:11:03;;;;;;;1.75;1.10;;;;;;;;;;5066632;28;20503;-76
2022/01/04 09:13:35;;;;;;;6.95;1.35;;;;;;;;;;5064056;28;20507;-76
2022/01/04 09:18:50;;;;;;;2.67;1.35;;;;;;;;;;5048194;28;20307;-75
2022/01/04 09:21:18;;;;;;;2.67;1.15;;;;;;;;;;5048874;28;20217;-75
2022/01/04 09:23:45;;;;;;;1.77;1.25;;;;;;;;;;5048938;28;20387;-75
2022/01/04 09:26:12;;;;;;;4.72;1.52;;;;;;;;;;5069301;28;20055;-76
2022/01/04 09:28:38;;;;;;;3.78;1.20;;;;;;;;;;5053295;28;20033;-76
2022/01/04 09:31:04;;;;;;;3.28;1.10;;;;;;;;;;5064452;28;20044;-75
2022/01/04 09:33:31;;;;;;;3.63;1.60;;;;;;;;;;5068893;28;20032;-75
2022/01/04 09:35:57;;;;;;;3.72;1.10;;;;;;;;;;5069441;28;20112;-75
2022/01/04 09:38:24;;;;;;;2.53;1.30;;;;;;;;;;5062983;28;20131;-75
2022/01/04 09:40:50;;;;;;;3.80;1.15;;;;;;;;;;5070146;28;20247;-75
2022/01/04 09:43:17;;;;;;;4.03;1.30;;;;;;;;;;5067907;28;20476;-75
2022/01/04 09:45:44;;;;;;;3.03;1.10;;;;;;;;;;5059557;28;20108;-75
2022/01/04 09:48:10;;;;;;;3.95;1.40;;;;;;;;;;5064516;28;20067;-75
2022/01/04 09:50:37;;;;;;;5.00;1.42;;;;;;;;;;5051488;28;20403;-75
2022/01/04 09:53:06;;;;;;;4.15;1.50;;;;;;;;;;5058524;28;20747;-75
2022/01/04 09:55:33;;;;;;;3.22;1.40;;;;;;;;;;5048390;28;20037;-75
2022/01/04 09:57:59;;;;;;;4.15;1.85;;;;;;;;;;5050377;28;20063;-75
2022/01/04 10:00:25;;;;;;;6.05;1.70;;;;;;;;;;5055924;28;20053;-76
2022/01/04 10:02:52;;;;;;;5.32;1.50;;;;;;;;;;5068454;28;20048;-75
2022/01/04 10:05:19;;;;;;;4.68;1.30;;;;;;;;;;5059971;28;20049;-75
2022/01/04 10:07:46;;;;;;;3.20;1.23;;;;;;;;;;5065544;28;20089;-75
2022/01/04 10:10:13;;;;;;;3.20;1.40;;;;;;;;;;5047582;28;20040;-75
2022/01/04 10:12:48;;;;;;;4.90;1.40;;;;;;;;;;5049717;28;20044;-75
2022/01/04 10:15:28;;;;;;;4.82;1.40;;;;;;;;;;5068574;28;20055;-76
2022/01/04 10:17:55;;;;;;;3.88;1.48;;;;;;;;;;5048514;28;20064;-75
2022/01/04 10:20:21;;;;;;;4.80;1.40;;;;;;;;;;5048128;28;20538;-75
2022/01/04 10:22:47;;;;;;;5.60;1.50;;;;;;;;;;5065057;28;20484;-75
2022/01/04 10:25:16;;;;;;;3.00;1.48;;;;;;;;;;5060077;28;20121;-75
2022/01/04 10:27:53;;;;;;;2.05;1.20;;;;;;;;;;5047854;28;20072;-75
2022/01/04 10:30:22;;;;;;;2.30;1.23;;;;;;;;;;5066404;28;21845;-75
2022/01/04 10:32:51;;;;;;;2.75;1.42;;;;;;;;;;5048554;28;20041;-75
2022/01/04 10:35:24;;;;;;;5.00;1.80;;;;;;;;;;5064688;28;20112;-75
2022/01/04 10:37:50;;;;;;;;;;;;;;;;;;5059599;28;20074;-75
2022/01/04 10:40:16;;;;;;;3.25;1.60;;;;;;;;;;5054212;28;19925;-75
2022/01/04 10:42:42;;;;;;;5.80;1.80;;;;;;;;;;5063650;28;20040;-75
2022/01/04 10:45:25;;;;;;;6.00;1.63;;;;;;;;;;5066313;28;20147;-75
2022/01/04 10:47:52;;;;;;;5.18;1.60;;;;;;;;;;5060884;28;20083;-75
2022/01/04 10:50:31;;;;;;;7.55;2.78;;;;;;;;;;5064162;28;20110;-75
2022/01/04 10:52:58;;;;;;;1.73;1.40;;;;;;;;;;5048261;28;20061;-75
2022/01/04 10:55:24;;;;;;;4.97;1.55;;;;;;;;;;5062162;28;20040;-75
2022/01/04 10:57:50;;;;;;;3.80;1.50;;;;;;;;;;5033278;28;20079;-74
2022/01/04 11:00:19;;;;;;;6.28;2.70;;;;;;;;;;5056025;28;20144;-75
2022/01/04 11:02:45;;;;;;;7.00;3.53;;;;;;;;;;5040217;28;20423;-75
2022/01/04 11:05:12;;;;;;;5.38;2.90;;;;;;;;;;5066328;28;20436;-75
2022/01/04 11:07:56;;;;;;;4.75;1.98;;;;;;;;;;5068698;28;20063;-75
2022/01/04 11:10:22;;;;;;;6.28;1.90;;;;;;;;;;5040296;28;20440;-75
2022/01/04 11:12:49;;;;;;;5.07;1.58;;;;;;;;;;5064162;28;20514;-75
2022/01/04 11:15:15;;;;;;;3.72;1.65;;;;;;;;;;5050601;28;20044;-75
2022/01/04 11:17:41;;;;;;;5.22;1.67;;;;;;;;;;5063691;28;20100;-75
2022/01/04 11:20:07;;;;;;;5.63;1.65;;;;;;;;;;5060026;28;20072;-75
2022/01/04 11:22:35;;;;;;;3.92;1.92;;;;;;;;;;5046763;28;20130;-75
2022/01/04 11:25:02;;;;;;;5.38;1.58;;;;;;;;;;5059486;28;20044;-75
2022/01/04 11:27:30;;;;;;;8.88;1.85;;;;;;;;;;5045771;28;20040;-75
2022/01/04 11:29:58;;;;;;;7.55;1.80;;;;;;;;;;5049835;28;20063;-75
2022/01/04 11:32:25;;;;;;;5.68;1.80;;;;;;;;;;5050662;28;21816;-74
2022/01/04 11:35:04;;;;;;;3.03;1.70;;;;;;;;;;5046731;28;20117;-75
2022/01/04 11:37:33;;;;;;;9.95;2.08;;;;;;;;;;5044853;28;20048;-74
2022/01/04 11:40:00;;;;;;;11.02;2.10;;;;;;;;;;5061589;28;20048;-75
2022/01/04 11:42:35;;;;;;;6.55;1.83;;;;;;;;;;5053416;28;20049;-75
2022/01/04 11:45:02;;;;;;;3.70;1.65;;;;;;;;;;5046310;28;20065;-74
2022/01/04 11:47:29;;;;;;;4.55;1.88;;;;;;;;;;5066015;28;20480;-75
2022/01/04 11:50:09;;;;;;;6.65;1.80;;;;;;;;;;5065075;28;20040;-75
2022/01/04 11:52:40;;;;;;;4.07;1.40;;;;;;;;;;5047511;28;20048;-75
2022/01/04 11:55:26;;;;;;;2.47;2.00;;;;;;;;;;5065146;28;20423;-74
2022/01/04 11:57:52;;;;;;;2.80;1.52;;;;;;;;;;5048265;28;20548;-74
2022/01/04 12:00:29;;;;;;;3.05;1.52;;;;;;;;;;5060650;28;20080;-74
2022/01/04 12:03:15;;;;;;;7.30;2.08;;;;;;;;;;5056424;28;20080;-74
2022/01/04 12:05:56;;;;;;;4.20;1.55;;;;;;;;;;5067355;28;20431;-74
2022/01/04 12:08:24;;;;;;;5.40;1.70;;;;;;;;;;5068997;28;20045;-74
2022/01/04 12:10:51;;;;;;;6.05;2.00;;;;;;;;;;5060349;28;20453;-74
2022/01/04 12:13:18;;;;;;;4.15;1.60;;;;;;;;;;5070891;28;20132;-74
2022/01/04 12:15:54;;;;;;;9.75;1.60;;;;;;;;;;5054769;28;20068;-75
2022/01/04 12:18:23;;;;;;;6.25;1.65;;;;;;;;;;5048545;28;20048;-74
2022/01/04 12:20:50;;;;;;;5.82;1.98;;;;;;;;;;5049299;28;20052;-74
2022/01/04 12:23:29;;;;;;;7.95;1.80;;;;;;;;;;5072222;28;20092;-74
2022/01/04 12:28:34;;;;;;;3.53;1.65;;;;;;;;;;5050889;28;20123;-74
2022/01/04 12:31:16;;;;;;;5.18;1.67;;;;;;;;;;5070135;28;20127;-74
2022/01/04 12:33:52;;;;;;;2.88;1.50;;;;;;;;;;5061461;28;20054;-74
2022/01/04 12:36:39;;;;;;;5.13;1.52;;;;;;;;;;5065568;28;20048;-74
2022/01/04 12:39:10;;;;;;;4.88;1.70;;;;;;;;;;5051899;28;20123;-74
2022/01/04 12:41:36;;;;;;;7.15;2.00;;;;;;;;;;5049381;28;20059;-74
2022/01/04 12:44:03;;;;;;;5.13;1.75;;;;;;;;;;5070798;28;20044;-74
2022/01/04 12:46:30;;;;;;;5.65;1.67;;;;;;;;;;5057242;28;20144;-74
2022/01/04 12:48:57;;;;;;;4.03;1.70;;;;;;;;;;5059763;28;20044;-74
2022/01/04 12:51:26;;;;;;;3.30;1.92;;;;;;;;;;5064886;28;20126;-74
2022/01/04 12:53:57;;;;;;;5.32;2.05;;;;;;;;;;5047574;28;20527;-74
2022/01/04 12:56:24;;;;;;;6.80;2.30;;;;;;;;;;5049661;28;20063;-74
2022/01/04 12:58:49;;;;;;;7.22;1.90;;;;;;;;;;5071816;28;20045;-74
2022/01/04 13:01:22;;;;;;;5.43;1.80;;;;;;;;;;5062773;28;20393;-74
2022/01/04 13:03:48;;;;;;;5.93;2.33;;;;;;;;;;5050915;28;20044;-74
2022/01/04 13:06:14;;;;;;;6.05;1.80;;;;;;;;;;5052107;28;20055;-74
2022/01/04 13:08:40;;;;;;;7.25;2.10;;;;;;;;;;5066602;28;20044;-74
2022/01/04 13:11:07;;;;;;;6.18;2.47;;;;;;;;;;5064965;28;20167;-74
2022/01/04 13:13:33;;;;;;;7.32;2.35;;;;;;;;;;5068332;28;20048;-74
2022/01/04 13:16:21;;;;;;;4.65;2.22;;;;;;;;;;5068691;28;20127;-75
2022/01/04 13:18:51;;;;;;;5.03;2.10;;;;;;;;;;5062101;28;20185;-75
2022/01/04 13:21:18;;;;;;;5.68;2.20;;;;;;;;;;5041696;28;20048;-74
2022/01/04 13:23:45;;;;;;;7.45;2.15;;;;;;;;;;5052592;28;20033;-74
2022/01/04 13:26:11;;;;;;;5.60;1.92;;;;;;;;;;5051316;28;20823;-73
2022/01/04 13:28:38;;;;;;;5.75;2.20;;;;;;;;;;5067910;28;20048;-74
2022/01/04 13:31:04;;;;;;;6.53;1.90;;;;;;;;;;5065776;28;20036;-74
2022/01/04 13:33:32;;;;;;;5.47;1.98;;;;;;;;;;5049494;28;20053;-74
2022/01/04 13:35:59;;;;;;;4.25;1.70;;;;;;;;;;5061577;28;20119;-74
2022/01/04 13:38:27;;;;;;;7.50;2.00;;;;;;;;;;5047662;28;20063;-73
2022/01/04 13:40:59;;;;;;;7.30;2.05;;;;;;;;;;5047995;28;20055;-73
2022/01/04 13:43:37;;;;;;;6.87;2.20;;;;;;;;;;5046627;28;20057;-74
2022/01/04 13:46:06;;;;;;;7.47;2.53;;;;;;;;;;5066267;28;20298;-74
2022/01/04 13:48:34;;;;;;;13.10;2.17;;;;;;;;;;5064054;28;20048;-74
2022/01/04 13:51:04;;;;;;;8.68;2.00;;;;;;;;;;5066633;28;20052;-74
2022/01/04 13:53:35;;;;;;;8.23;2.80;;;;;;;;;;5045604;28;20045;-74
2022/01/04 13:56:10;;;;;;;6.63;2.10;;;;;;;;;;5051937;28;20063;-74
2022/01/04 13:58:46;;;;;;;6.90;2.00;;;;;;;;;;5046033;28;20041;-74
2022/01/04 14:01:12;;;;;;;8.07;2.05;;;;;;;;;;5063302;28;20059;-73
2022/01/04 14:03:38;;;;;;;7.00;2.20;;;;;;;;;;5066815;28;20048;-74
2022/01/04 14:06:04;;;;;;;6.88;2.15;;;;;;;;;;5061050;28;20349;-74
2022/01/04 14:08:50;;;;;;;5.07;1.80;;;;;;;;;;5063762;28;20044;-74
2022/01/04 14:11:26;;;;;;;5.22;2.20;;;;;;;;;;5065721;28;20047;-74
2022/01/04 14:13:53;;;;;;;6.78;2.13;;;;;;;;;;5062379;28;20052;-74
2022/01/04 14:16:20;;;;;;;10.35;2.30;;;;;;;;;;5067775;28;20068;-74
2022/01/04 14:19:05;;;;;;;3.80;1.83;;;;;;;;;;5048412;28;20048;-74
2022/01/04 14:21:31;;;;;;;6.30;2.10;;;;;;;;;;5045795;28;20071;-74
2022/01/04 14:23:58;;;;;;;8.45;2.17;;;;;;;;;;5049816;28;20052;-73
2022/01/04 14:26:24;;;;;;;5.90;2.20;;;;;;;;;;5066197;28;20049;-74
2022/01/04 14:28:50;;;;;;;9.95;2.20;;;;;;;;;;5058315;28;20773;-74
2022/01/04 14:31:17;;;;;;;5.47;1.90;;;;;;;;;;5047801;28;20048;-73
2022/01/04 14:33:43;;;;;;;4.82;1.80;;;;;;;;;;5044204;28;20079;-73
2022/01/04 14:36:09;;;;;;;6.50;2.13;;;;;;;;;;5065585;28;20073;-74
2022/01/04 14:38:34;;;;;;;6.75;2.33;;;;;;;;;;5046667;28;20407;-74
2022/01/04 14:41:00;;;;;;;6.50;2.03;;;;;;;;;;5067951;28;20036;-74
2022/01/04 14:43:26;;;;;;;11.02;2.78;;;;;;;;;;5049420;28;20036;-74
2022/01/04 14:45:53;;;;;;;5.82;2.13;;;;;;;;;;5041375;28;20049;-74
2022/01/04 14:48:20;;;;;;;4.35;2.00;;;;;;;;;;5044849;28;20120;-73
2022/01/04 14:50:46;;;;;;;8.05;2.58;;;;;;;;;;5046935;28;20480;-74